sensor_id;sensor_type;location;lat;lon;timestamp;pressure;altitude;pressure_sealevel;temperature;humidity
50087;BME280;35967;50.718;7.050;2023-01-25T00:03:51;102800.69;;;2.63;84.32
50087;BME280;35967;50.718;7.050;2023-01-25T00:13:56;102791.03;;;2.56;85.16
50087;BME280;35967;50.718;7.050;2023-01-25T00:23:59;102789.69;;;2.44;85.42
50087;BME280;35967;50.718;7.050;2023-01-25T00:44:34;102777.19;;;2.31;86.35
50087;BME280;35967;50.718;7.050;2023-01-25T00:54:39;102781.25;;;2.27;86.61
50087;BME280;35967;50.718;7.050;2023-01-25T01:04:43;102766.81;;;2.26;86.49
50087;BME280;35967;50.718;7.050;2023-01-25T01:14:48;102765.31;;;2.12;87.03
50087;BME280;35967;50.718;7.050;2023-01-25T01:24:51;102755.22;;;2.13;86.77
50087;BME280;35967;50.718;7.050;2023-01-25T01:34:55;102747.38;;;2.27;87.15
50087;BME280;35967;50.718;7.050;2023-01-25T01:44:58;102758.75;;;2.35;86.77
50087;BME280;35967;50.718;7.050;2023-01-25T01:55:07;102759.44;;;1.95;87.77
50087;BME280;35967;50.718;7.050;2023-01-25T02:15:41;102748.81;;;2.40;87.21
50087;BME280;35967;50.718;7.050;2023-01-25T02:25:46;102745.34;;;2.19;87.75
50087;BME280;35967;50.718;7.050;2023-01-25T02:35:55;102737.63;;;2.18;87.65
50087;BME280;35967;50.718;7.050;2023-01-25T02:46:09;102733.44;;;2.18;87.72
50087;BME280;35967;50.718;7.050;2023-01-25T02:56:17;102727.66;;;2.03;88.24
50087;BME280;35967;50.718;7.050;2023-01-25T03:06:23;102728.47;;;2.21;87.90
50087;BME280;35967;50.718;7.050;2023-01-25T03:16:26;102724.00;;;1.98;88.56
50087;BME280;35967;50.718;7.050;2023-01-25T03:26:31;102714.50;;;2.12;88.53
50087;BME280;35967;50.718;7.050;2023-01-25T03:37:00;102720.72;;;2.00;88.38
50087;BME280;35967;50.718;7.050;2023-01-25T03:47:06;102710.88;;;1.88;88.85
50087;BME280;35967;50.718;7.050;2023-01-25T03:57:09;102716.09;;;1.92;88.49
50087;BME280;35967;50.718;7.050;2023-01-25T04:07:24;102704.06;;;2.05;88.81
50087;BME280;35967;50.718;7.050;2023-01-25T04:17:28;102693.03;;;1.87;89.50
50087;BME280;35967;50.718;7.050;2023-01-25T04:27:41;102682.50;;;1.97;89.14
50087;BME280;35967;50.718;7.050;2023-01-25T04:37:54;102667.53;;;2.03;89.36
50087;BME280;35967;50.718;7.050;2023-01-25T04:48:06;102658.06;;;1.81;90.17
50087;BME280;35967;50.718;7.050;2023-01-25T04:58:15;102658.16;;;1.83;89.62
50087;BME280;35967;50.718;7.050;2023-01-25T05:08:20;102650.13;;;1.93;89.65
50087;BME280;35967;50.718;7.050;2023-01-25T05:18:26;102660.47;;;1.78;90.13
50087;BME280;35967;50.718;7.050;2023-01-25T05:28:47;102646.19;;;1.80;89.68
50087;BME280;35967;50.718;7.050;2023-01-25T05:39:04;102631.28;;;1.88;90.29
50087;BME280;35967;50.718;7.050;2023-01-25T05:49:09;102629.53;;;1.87;90.57
50087;BME280;35967;50.718;7.050;2023-01-25T05:59:13;102617.38;;;1.80;91.08
50087;BME280;35967;50.718;7.050;2023-01-25T06:09:19;102624.94;;;1.78;90.47
50087;BME280;35967;50.718;7.050;2023-01-25T06:19:24;102613.25;;;1.82;91.12
50087;BME280;35967;50.718;7.050;2023-01-25T06:29:43;102612.53;;;1.66;91.59
50087;BME280;35967;50.718;7.050;2023-01-25T06:39:47;102604.81;;;1.83;92.04
50087;BME280;35967;50.718;7.050;2023-01-25T06:49:52;102608.28;;;1.85;91.96
50087;BME280;35967;50.718;7.050;2023-01-25T06:59:55;102599.97;;;1.87;91.47
50087;BME280;35967;50.718;7.050;2023-01-25T07:10:00;102602.63;;;1.91;91.58
50087;BME280;35967;50.718;7.050;2023-01-25T07:20:04;102616.41;;;1.96;91.28
50087;BME280;35967;50.718;7.050;2023-01-25T07:30:10;102611.03;;;1.89;91.90
50087;BME280;35967;50.718;7.050;2023-01-25T07:40:14;102616.41;;;1.78;92.55
50087;BME280;35967;50.718;7.050;2023-01-25T07:50:19;102607.78;;;1.92;92.23
50087;BME280;35967;50.718;7.050;2023-01-25T08:00:22;102605.03;;;1.87;91.76
50087;BME280;35967;50.718;7.050;2023-01-25T08:10:27;102621.28;;;1.73;92.77
50087;BME280;35967;50.718;7.050;2023-01-25T08:20:31;102610.63;;;1.80;92.73
50087;BME280;35967;50.718;7.050;2023-01-25T08:30:35;102602.66;;;1.72;92.25
50087;BME280;35967;50.718;7.050;2023-01-25T08:40:53;102602.19;;;1.44;93.33
50087;BME280;35967;50.718;7.050;2023-01-25T08:50:57;102589.22;;;1.75;93.07
50087;BME280;35967;50.718;7.050;2023-01-25T09:01:03;102587.63;;;1.77;93.08
50087;BME280;35967;50.718;7.050;2023-01-25T09:11:10;102591.06;;;1.60;93.16
50087;BME280;35967;50.718;7.050;2023-01-25T09:21:17;102579.09;;;1.57;93.32
50087;BME280;35967;50.718;7.050;2023-01-25T09:31:21;102574.69;;;1.91;93.70
50087;BME280;35967;50.718;7.050;2023-01-25T09:42:25;102562.50;;;1.83;93.26
50087;BME280;35967;50.718;7.050;2023-01-25T09:52:49;102556.28;;;1.77;92.88
50087;BME280;35967;50.718;7.050;2023-01-25T10:03:22;102543.88;;;1.83;92.84
50087;BME280;35967;50.718;7.050;2023-01-25T10:13:47;102532.19;;;1.86;92.46
50087;BME280;35967;50.718;7.050;2023-01-25T10:24:03;102521.88;;;1.83;92.06
50087;BME280;35967;50.718;7.050;2023-01-25T10:34:17;102506.22;;;1.92;92.78
50087;BME280;35967;50.718;7.050;2023-01-25T10:44:23;102497.88;;;1.57;93.69
50087;BME280;35967;50.718;7.050;2023-01-25T10:54:28;102475.97;;;1.98;93.28
50087;BME280;35967;50.718;7.050;2023-01-25T11:04:33;102455.56;;;1.76;93.37
50087;BME280;35967;50.718;7.050;2023-01-25T11:14:40;102451.28;;;1.75;93.59
50087;BME280;35967;50.718;7.050;2023-01-25T11:24:43;102440.97;;;1.91;93.91
50087;BME280;35967;50.718;7.050;2023-01-25T11:34:49;102431.38;;;1.84;93.23
50087;BME280;35967;50.718;7.050;2023-01-25T11:45:15;102420.91;;;1.97;93.42
50087;BME280;35967;50.718;7.050;2023-01-25T11:55:25;102394.47;;;1.92;93.60
50087;BME280;35967;50.718;7.050;2023-01-25T12:05:39;102374.16;;;1.72;93.44
50087;BME280;35967;50.718;7.050;2023-01-25T12:15:58;102347.75;;;1.67;94.33
50087;BME280;35967;50.718;7.050;2023-01-25T12:26:11;102324.88;;;1.67;93.72
50087;BME280;35967;50.718;7.050;2023-01-25T12:36:26;102311.84;;;1.79;93.45
50087;BME280;35967;50.718;7.050;2023-01-25T12:46:33;102287.28;;;1.58;93.61
50087;BME280;35967;50.718;7.050;2023-01-25T12:56:45;102258.56;;;1.60;93.28
50087;BME280;35967;50.718;7.050;2023-01-25T13:06:55;102237.47;;;1.82;93.08
50087;BME280;35967;50.718;7.050;2023-01-25T13:17:27;102225.22;;;1.94;93.74
50087;BME280;35967;50.718;7.050;2023-01-25T13:27:34;102201.59;;;1.74;94.03
50087;BME280;35967;50.718;7.050;2023-01-25T13:37:40;102178.50;;;1.68;93.95
50087;BME280;35967;50.718;7.050;2023-01-25T13:47:58;102171.13;;;1.74;93.77
50087;BME280;35967;50.718;7.050;2023-01-25T13:58:15;102160.00;;;1.93;93.56
50087;BME280;35967;50.718;7.050;2023-01-25T14:08:20;102149.16;;;1.75;94.10
50087;BME280;35967;50.718;7.050;2023-01-25T14:18:30;102141.75;;;1.58;94.02
50087;BME280;35967;50.718;7.050;2023-01-25T14:28:34;102140.22;;;1.62;94.22
50087;BME280;35967;50.718;7.050;2023-01-25T14:38:40;102118.69;;;1.52;94.92
50087;BME280;35967;50.718;7.050;2023-01-25T14:48:43;102109.13;;;1.67;94.05
50087;BME280;35967;50.718;7.050;2023-01-25T14:58:49;102111.75;;;1.70;93.79
50087;BME280;35967;50.718;7.050;2023-01-25T15:09:01;102096.31;;;1.87;93.95
50087;BME280;35967;50.718;7.050;2023-01-25T15:19:20;102098.22;;;1.70;94.30
50087;BME280;35967;50.718;7.050;2023-01-25T15:29:24;102082.69;;;1.85;93.77
50087;BME280;35967;50.718;7.050;2023-01-25T15:39:29;102073.13;;;1.55;94.04
50087;BME280;35967;50.718;7.050;2023-01-25T15:49:33;102060.41;;;1.78;94.28
50087;BME280;35967;50.718;7.050;2023-01-25T15:59:43;102054.50;;;1.54;95.24
50087;BME280;35967;50.718;7.050;2023-01-25T16:10:08;102036.53;;;1.72;95.21
50087;BME280;35967;50.718;7.050;2023-01-25T16:20:41;102042.03;;;1.61;95.04
50087;BME280;35967;50.718;7.050;2023-01-25T16:30:45;102042.16;;;1.64;94.68
50087;BME280;35967;50.718;7.050;2023-01-25T16:40:50;102041.41;;;1.44;96.08
50087;BME280;35967;50.718;7.050;2023-01-25T16:50:56;102034.03;;;1.50;95.20
50087;BME280;35967;50.718;7.050;2023-01-25T17:01:07;102022.31;;;1.31;95.58
50087;BME280;35967;50.718;7.050;2023-01-25T17:11:12;102024.53;;;1.46;95.32
50087;BME280;35967;50.718;7.050;2023-01-25T17:21:17;102023.91;;;1.51;94.55
50087;BME280;35967;50.718;7.050;2023-01-25T17:31:23;102013.78;;;1.51;94.31
50087;BME280;35967;50.718;7.050;2023-01-25T17:41:28;102012.00;;;1.49;94.74
50087;BME280;35967;50.718;7.050;2023-01-25T17:51:31;102006.97;;;1.28;95.33
50087;BME280;35967;50.718;7.050;2023-01-25T18:01:38;101986.31;;;1.18;95.62
50087;BME280;35967;50.718;7.050;2023-01-25T18:11:43;101983.06;;;1.44;94.71
50087;BME280;35967;50.718;7.050;2023-01-25T18:21:47;101976.41;;;1.24;94.93
50087;BME280;35967;50.718;7.050;2023-01-25T18:31:51;101979.47;;;1.38;96.66
50087;BME280;35967;50.718;7.050;2023-01-25T18:41:56;101986.25;;;1.39;97.20
50087;BME280;35967;50.718;7.050;2023-01-25T18:52:03;101978.25;;;1.06;95.65
50087;BME280;35967;50.718;7.050;2023-01-25T19:02:15;101969.94;;;1.10;95.15
50087;BME280;35967;50.718;7.050;2023-01-25T19:12:19;101955.72;;;1.14;94.81
50087;BME280;35967;50.718;7.050;2023-01-25T19:22:23;101933.97;;;0.75;96.45
50087;BME280;35967;50.718;7.050;2023-01-25T19:32:26;101925.06;;;0.85;96.05
50087;BME280;35967;50.718;7.050;2023-01-25T19:42:32;101914.81;;;0.60;96.77
50087;BME280;35967;50.718;7.050;2023-01-25T19:52:35;101899.13;;;0.69;96.89
50087;BME280;35967;50.718;7.050;2023-01-25T20:02:39;101875.16;;;0.61;95.94
50087;BME280;35967;50.718;7.050;2023-01-25T20:12:43;101857.66;;;0.67;95.78
50087;BME280;35967;50.718;7.050;2023-01-25T20:22:47;101835.63;;;0.89;93.94
50087;BME280;35967;50.718;7.050;2023-01-25T20:32:53;101828.22;;;0.71;94.78
50087;BME280;35967;50.718;7.050;2023-01-25T20:42:58;101821.25;;;0.65;94.93
50087;BME280;35967;50.718;7.050;2023-01-25T20:53:01;101834.25;;;0.52;94.52
50087;BME280;35967;50.718;7.050;2023-01-25T21:03:05;101816.25;;;0.44;94.63
50087;BME280;35967;50.718;7.050;2023-01-25T21:13:09;101811.91;;;0.41;93.52
50087;BME280;35967;50.718;7.050;2023-01-25T21:23:13;101792.38;;;0.39;93.89
50087;BME280;35967;50.718;7.050;2023-01-25T21:33:18;101800.88;;;0.62;92.80
50087;BME280;35967;50.718;7.050;2023-01-25T21:43:23;101789.81;;;0.60;92.38
50087;BME280;35967;50.718;7.050;2023-01-25T21:53:27;101770.06;;;0.51;91.81
50087;BME280;35967;50.718;7.050;2023-01-25T22:03:31;101779.16;;;0.46;90.44
50087;BME280;35967;50.718;7.050;2023-01-25T22:13:35;101769.09;;;0.47;89.35
50087;BME280;35967;50.718;7.050;2023-01-25T22:23:40;101771.72;;;0.51;88.92
50087;BME280;35967;50.718;7.050;2023-01-25T22:33:43;101773.34;;;0.49;88.72
50087;BME280;35967;50.718;7.050;2023-01-25T22:43:48;101765.22;;;0.57;87.54
50087;BME280;35967;50.718;7.050;2023-01-25T22:53:52;101773.19;;;0.44;89.82
50087;BME280;35967;50.718;7.050;2023-01-25T23:03:56;101760.31;;;0.17;90.52
50087;BME280;35967;50.718;7.050;2023-01-25T23:14:00;101756.97;;;0.18;90.35
50087;BME280;35967;50.718;7.050;2023-01-25T23:24:31;101750.22;;;0.39;90.90
50087;BME280;35967;50.718;7.050;2023-01-25T23:34:35;101745.25;;;0.20;91.60
50087;BME280;35967;50.718;7.050;2023-01-25T23:44:42;101734.72;;;0.09;92.04
50087;BME280;35967;50.718;7.050;2023-01-25T23:54:45;101724.81;;;0.15;92.88
